createdAt,value
2024-01-11T00:00:24.978Z,12.70
2024-01-11T00:03:11.452Z,7.50
2024-01-11T00:05:57.887Z,5.80
2024-01-11T00:08:44.143Z,8.37
2024-01-11T00:11:31.571Z,7.37
2024-01-11T00:14:18.080Z,13.43
2024-01-11T00:17:04.662Z,14.23
2024-01-11T00:19:51.555Z,5.70
2024-01-11T00:22:37.810Z,8.87
2024-01-11T00:25:24.512Z,8.20
2024-01-11T00:28:12.015Z,7.17
2024-01-11T00:30:58.139Z,10.70
2024-01-11T00:33:44.693Z,7.90
2024-01-11T00:36:30.851Z,12.07
2024-01-11T00:39:17.101Z,12.13
2024-01-11T00:42:03.627Z,7.77
2024-01-11T00:44:51.379Z,16.77
2024-01-11T00:47:37.909Z,14.77
2024-01-11T00:50:24.224Z,13.70
2024-01-11T00:53:11.984Z,6.30
2024-01-11T00:55:58.357Z,10.50
2024-01-11T00:58:44.922Z,7.40
2024-01-11T01:01:32.651Z,6.20
2024-01-11T01:04:18.782Z,13.37
2024-01-11T01:07:05.179Z,9.00
2024-01-11T01:09:51.448Z,9.07
2024-01-11T01:12:37.730Z,4.93
2024-01-11T01:15:23.978Z,10.37
2024-01-11T01:18:11.515Z,6.90
2024-01-11T01:20:58.213Z,9.23
2024-01-11T01:23:44.515Z,9.43
2024-01-11T01:26:31.158Z,8.83
2024-01-11T01:29:17.382Z,9.73
2024-01-11T01:32:03.520Z,7.80
2024-01-11T01:34:50.918Z,12.97
2024-01-11T01:37:37.865Z,11.53
2024-01-11T01:40:24.001Z,5.37
2024-01-11T01:43:10.931Z,7.60
2024-01-11T01:45:57.764Z,7.80
2024-01-11T01:48:44.498Z,3.90
2024-01-11T01:51:33.199Z,7.00
2024-01-11T01:54:21.494Z,5.77
2024-01-11T01:57:10.878Z,5.30
2024-01-11T01:59:57.258Z,6.10
2024-01-11T02:02:45.653Z,6.80
2024-01-11T02:05:32.661Z,10.57
2024-01-11T02:08:24.877Z,3.60
2024-01-11T02:11:12.590Z,8.47
2024-01-11T02:13:59.546Z,6.50
2024-01-11T02:16:45.592Z,10.80
2024-01-11T02:19:32.230Z,7.40
2024-01-11T02:22:24.103Z,3.47
2024-01-11T02:25:11.841Z,5.13
2024-01-11T02:27:58.199Z,4.20
2024-01-11T02:30:44.845Z,7.60
2024-01-11T02:33:31.349Z,8.20
2024-01-11T02:36:18.188Z,4.87
2024-01-11T02:39:04.544Z,7.00
2024-01-11T02:41:53.401Z,11.00
2024-01-11T02:44:39.834Z,7.40
2024-01-11T02:47:26.410Z,13.37
2024-01-11T02:50:13.807Z,14.40
2024-01-11T02:52:59.841Z,5.30
2024-01-11T02:55:46.138Z,6.17
2024-01-11T02:58:33.993Z,4.67
2024-01-11T03:01:20.479Z,7.43
2024-01-11T03:04:07.737Z,5.87
2024-01-11T03:06:53.902Z,10.67
2024-01-11T03:09:40.405Z,7.03
2024-01-11T03:12:27.127Z,4.73
2024-01-11T03:15:15.023Z,8.93
2024-01-11T03:18:01.606Z,6.97
2024-01-11T03:20:47.814Z,4.73
2024-01-11T03:23:34.134Z,10.67
2024-01-11T03:26:20.562Z,9.47
2024-01-11T03:29:06.662Z,7.57
2024-01-11T03:31:54.159Z,7.07
2024-01-11T03:34:40.536Z,8.50
2024-01-11T03:37:26.877Z,10.30
2024-01-11T03:40:13.559Z,6.37
2024-01-11T03:42:59.785Z,4.80
2024-01-11T03:45:46.120Z,7.73
2024-01-11T03:48:34.239Z,4.20
2024-01-11T03:51:20.411Z,4.47
2024-01-11T03:54:06.954Z,10.93
2024-01-11T03:56:53.061Z,6.30
2024-01-11T03:59:39.309Z,5.77
2024-01-11T04:02:25.535Z,4.97
2024-01-11T04:05:13.427Z,6.87
2024-01-11T04:07:59.836Z,5.93
2024-01-11T04:10:46.077Z,9.47
2024-01-11T04:13:32.482Z,3.80
2024-01-11T04:16:18.480Z,6.47
2024-01-11T04:19:05.159Z,5.17
2024-01-11T04:21:53.623Z,6.17
2024-01-11T04:24:40.025Z,4.93
2024-01-11T04:27:26.336Z,8.23
2024-01-11T04:30:12.872Z,8.20
2024-01-11T04:32:59.327Z,5.63
2024-01-11T04:35:45.951Z,6.17
2024-01-11T04:38:33.500Z,10.43
2024-01-11T04:41:20.129Z,5.27
2024-01-11T04:44:06.534Z,4.60
2024-01-11T04:46:53.062Z,7.77
2024-01-11T04:49:40.662Z,6.77
2024-01-11T04:52:26.783Z,3.50
2024-01-11T04:55:14.753Z,11.30
2024-01-11T04:58:01.008Z,3.30
2024-01-11T05:00:47.045Z,6.53
2024-01-11T05:03:33.614Z,4.30
2024-01-11T05:06:21.103Z,5.17
2024-01-11T05:09:07.923Z,4.40
2024-01-11T05:11:55.794Z,5.80
2024-01-11T05:14:42.171Z,3.73
2024-01-11T05:17:28.557Z,3.80
2024-01-11T05:20:15.480Z,7.63
2024-01-11T05:23:02.334Z,8.33
2024-01-11T05:25:48.921Z,8.90
2024-01-11T05:28:36.663Z,2.60
2024-01-11T05:31:23.385Z,6.40
2024-01-11T05:34:13.268Z,3.43
2024-01-11T05:37:01.162Z,4.17
2024-01-11T05:39:47.478Z,7.63
2024-01-11T05:42:33.921Z,5.00
2024-01-11T05:45:25.050Z,3.63
2024-01-11T05:48:15.480Z,12.93
2024-01-11T05:51:02.890Z,10.17
2024-01-11T05:53:49.031Z,5.83
2024-01-11T05:56:35.223Z,5.00
2024-01-11T05:59:21.280Z,12.27
2024-01-11T06:02:08.893Z,6.53
2024-01-11T06:04:55.112Z,6.17
2024-01-11T06:07:41.377Z,4.67
2024-01-11T06:10:27.901Z,7.20
2024-01-11T06:13:14.286Z,4.10
2024-01-11T06:16:00.488Z,6.67
2024-01-11T06:18:48.188Z,4.43
2024-01-11T06:21:34.386Z,12.67
2024-01-11T06:24:20.558Z,9.63
2024-01-11T06:27:07.049Z,7.37
2024-01-11T06:29:53.240Z,6.80
2024-01-11T06:32:40.005Z,8.50
2024-01-11T06:35:27.887Z,2.43
2024-01-11T06:38:14.500Z,2.07
2024-01-11T06:41:00.570Z,16.30
2024-01-11T06:43:46.915Z,5.03
2024-01-11T06:46:32.965Z,4.00
2024-01-11T06:49:19.492Z,6.13
2024-01-11T06:52:07.727Z,3.73
2024-01-11T06:54:54.232Z,6.83
2024-01-11T06:57:40.298Z,2.67
2024-01-11T07:00:26.486Z,3.40
2024-01-11T07:03:13.204Z,3.80
2024-01-11T07:05:59.572Z,8.97
2024-01-11T07:08:47.649Z,7.17
2024-01-11T07:11:34.238Z,5.23
2024-01-11T07:14:20.600Z,4.77
2024-01-11T07:17:06.933Z,5.87
2024-01-11T07:19:53.202Z,7.90
2024-01-11T07:22:42.249Z,6.60
2024-01-11T07:25:31.587Z,11.00
2024-01-11T07:28:18.260Z,10.20
2024-01-11T07:31:04.962Z,3.43
2024-01-11T07:33:51.625Z,13.30
2024-01-11T07:36:38.305Z,4.57
2024-01-11T07:39:25.426Z,4.63
2024-01-11T07:42:13.029Z,4.37
2024-01-11T07:44:59.289Z,7.20
2024-01-11T07:47:45.428Z,10.40
2024-01-11T07:50:31.843Z,5.80
2024-01-11T07:53:18.247Z,6.73
2024-01-11T07:56:04.728Z,3.97
2024-01-11T07:58:52.316Z,4.80
2024-01-11T08:01:38.428Z,11.90
2024-01-11T08:04:24.582Z,8.13
2024-01-11T08:07:10.660Z,7.90
2024-01-11T08:09:57.164Z,4.43
2024-01-11T08:12:43.231Z,3.23
2024-01-11T08:15:30.847Z,4.83
2024-01-11T08:18:17.041Z,8.80
2024-01-11T08:21:03.903Z,6.37
2024-01-11T08:23:50.726Z,12.20
2024-01-11T08:26:37.326Z,7.27
2024-01-11T08:29:23.475Z,5.40
2024-01-11T08:32:15.551Z,4.43
2024-01-11T08:35:12.762Z,6.20
2024-01-11T08:37:59.170Z,8.70
2024-01-11T08:40:45.568Z,4.30
2024-01-11T08:43:32.095Z,6.00
2024-01-11T08:46:25.622Z,9.27
2024-01-11T08:49:13.391Z,8.30
2024-01-11T08:51:59.757Z,8.97
2024-01-11T08:54:46.245Z,8.20
2024-01-11T08:57:32.962Z,8.27
2024-01-11T09:00:19.972Z,10.40
2024-01-11T09:03:06.526Z,4.80
2024-01-11T09:05:58.087Z,5.10
2024-01-11T09:08:44.291Z,6.13
2024-01-11T09:11:31.010Z,8.20
2024-01-11T09:14:17.425Z,5.70
2024-01-11T09:17:03.645Z,5.07
2024-01-11T09:19:49.871Z,8.40
2024-01-11T09:22:37.624Z,6.13
2024-01-11T09:25:26.219Z,14.47
2024-01-11T09:28:12.693Z,13.87
2024-01-11T09:31:00.976Z,5.17
2024-01-11T09:33:47.516Z,10.33
2024-01-11T09:36:34.168Z,7.80
2024-01-11T09:39:21.999Z,11.00
2024-01-11T09:42:10.657Z,8.07
2024-01-11T09:44:58.608Z,5.87
2024-01-11T09:47:46.868Z,5.77
2024-01-11T09:50:33.117Z,18.70
2024-01-11T09:53:21.924Z,13.00
2024-01-11T09:56:10.768Z,12.30
2024-01-11T09:58:57.236Z,8.03
2024-01-11T10:01:43.646Z,12.60
2024-01-11T10:04:30.420Z,14.57
2024-01-11T10:07:19.784Z,11.13
2024-01-11T10:10:08.132Z,7.67
2024-01-11T10:12:56.903Z,8.90
2024-01-11T10:15:43.986Z,7.10
2024-01-11T10:18:30.029Z,8.63
2024-01-11T10:21:16.219Z,11.30
2024-01-11T10:24:05.340Z,7.63
2024-01-11T10:26:52.243Z,9.77
2024-01-11T10:29:40.056Z,12.70
2024-01-11T10:32:30.311Z,19.13
2024-01-11T10:35:18.583Z,7.10
2024-01-11T10:38:10.312Z,7.47
2024-01-11T10:40:57.783Z,17.10
2024-01-11T10:43:45.462Z,6.77
2024-01-11T10:46:36.609Z,13.87
2024-01-11T10:49:26.207Z,9.70
2024-01-11T10:52:14.566Z,10.13
2024-01-11T10:55:02.290Z,14.10
2024-01-11T10:57:50.476Z,10.27
2024-01-11T11:00:37.396Z,12.13
2024-01-11T11:03:26.642Z,9.13
2024-01-11T11:06:14.545Z,16.30
2024-01-11T11:09:01.570Z,8.30
2024-01-11T11:11:48.106Z,9.50
2024-01-11T11:14:37.136Z,12.00
2024-01-11T11:17:23.714Z,10.57
2024-01-11T11:20:13.811Z,15.57
2024-01-11T11:23:07.174Z,12.43
2024-01-11T11:25:56.540Z,8.60
2024-01-11T11:28:43.014Z,10.87
2024-01-11T11:31:39.157Z,10.30
2024-01-11T11:34:45.210Z,7.47
2024-01-11T11:37:33.841Z,7.23
2024-01-11T11:40:20.789Z,11.67
2024-01-11T11:43:06.950Z,11.50
2024-01-11T11:45:54.203Z,13.63
2024-01-11T11:48:50.845Z,17.73
2024-01-11T11:51:37.109Z,11.07
2024-01-11T11:54:26.003Z,13.00
2024-01-11T11:57:12.913Z,7.57
2024-01-11T12:00:00.408Z,9.87
2024-01-11T12:02:48.837Z,8.53
2024-01-11T12:05:35.289Z,9.30
2024-01-11T12:08:21.319Z,10.93
2024-01-11T12:11:08.953Z,7.67
2024-01-11T12:13:58.087Z,9.43
2024-01-11T12:16:44.999Z,15.43
2024-01-11T12:19:32.049Z,8.53
2024-01-11T12:22:20.186Z,13.97
2024-01-11T12:25:07.639Z,9.70
2024-01-11T12:27:55.501Z,9.33
2024-01-11T12:30:41.724Z,11.43
2024-01-11T12:33:28.968Z,11.90
2024-01-11T12:36:16.729Z,7.57
2024-01-11T12:39:05.080Z,10.40
2024-01-11T12:41:52.727Z,7.57
2024-01-11T12:44:41.580Z,8.57
2024-01-11T12:47:28.297Z,6.83
2024-01-11T12:50:14.955Z,10.27
2024-01-11T12:53:09.450Z,8.10
2024-01-11T12:56:06.349Z,6.67
2024-01-11T12:58:52.553Z,6.17
2024-01-11T13:01:41.186Z,4.40
2024-01-11T13:04:27.716Z,3.33
2024-01-11T13:07:14.310Z,4.87
2024-01-11T13:10:00.456Z,5.03
2024-01-11T13:12:51.413Z,3.77
2024-01-11T13:15:40.474Z,2.27
2024-01-11T13:18:28.152Z,1.40
2024-01-11T13:21:14.942Z,2.17
2024-01-11T13:24:01.390Z,2.40
2024-01-11T13:26:47.839Z,2.20
2024-01-11T13:29:34.087Z,3.83
2024-01-11T13:32:23.353Z,2.80
2024-01-11T13:35:10.868Z,1.70
2024-01-11T13:37:56.990Z,1.97
2024-01-11T13:40:44.323Z,2.53
2024-01-11T13:43:30.469Z,3.77
2024-01-11T13:46:20.621Z,2.07
2024-01-11T13:49:07.121Z,4.07
2024-01-11T13:52:00.751Z,4.20
2024-01-11T13:54:48.020Z,3.13
2024-01-11T13:57:35.021Z,3.27
2024-01-11T14:00:22.152Z,2.30
2024-01-11T14:03:09.830Z,2.67
2024-01-11T14:05:56.615Z,3.83
2024-01-11T14:08:44.403Z,3.30
2024-01-11T14:11:30.936Z,5.23
2024-01-11T14:14:19.690Z,2.33
2024-01-11T14:17:05.776Z,2.83
2024-01-11T14:19:52.385Z,4.67
2024-01-11T14:22:38.842Z,4.10
2024-01-11T14:25:27.195Z,1.90
2024-01-11T14:28:13.531Z,2.63
2024-01-11T14:30:59.866Z,4.20
2024-01-11T14:33:46.218Z,4.93
2024-01-11T14:36:33.165Z,5.47
2024-01-11T14:39:19.308Z,4.37
2024-01-11T14:42:08.923Z,3.80
2024-01-11T14:44:55.538Z,4.87
2024-01-11T14:47:41.946Z,2.33
2024-01-11T14:50:29.447Z,2.77
2024-01-11T14:53:16.083Z,5.63
2024-01-11T14:56:02.504Z,4.63
2024-01-11T14:58:50.381Z,2.17
2024-01-11T15:01:36.540Z,2.57
2024-01-11T15:04:23.099Z,2.63
2024-01-11T15:07:09.665Z,2.27
2024-01-11T15:09:56.404Z,1.50
2024-01-11T15:12:42.822Z,3.13
2024-01-11T15:15:31.300Z,2.23
2024-01-11T15:18:17.646Z,1.87
2024-01-11T15:21:04.258Z,3.03
2024-01-11T15:23:50.709Z,3.97
2024-01-11T15:26:37.430Z,2.10
2024-01-11T15:29:23.934Z,2.93
2024-01-11T15:32:11.849Z,3.63
2024-01-11T15:34:58.222Z,2.87
2024-01-11T15:37:44.339Z,4.10
2024-01-11T15:40:30.526Z,3.60
2024-01-11T15:43:16.597Z,5.07
2024-01-11T15:46:02.568Z,4.00
2024-01-11T15:48:50.114Z,2.43
2024-01-11T15:51:36.149Z,6.00
2024-01-11T15:54:22.542Z,2.50
2024-01-11T15:57:08.936Z,4.97
2024-01-11T15:59:55.153Z,2.53
2024-01-11T16:02:43.076Z,2.90
2024-01-11T16:05:31.076Z,4.63
2024-01-11T16:08:17.323Z,1.93
2024-01-11T16:11:03.435Z,2.77
2024-01-11T16:13:50.415Z,4.07
2024-01-11T16:16:36.756Z,4.93
2024-01-11T16:19:22.969Z,4.03
2024-01-11T16:22:11.156Z,6.17
2024-01-11T16:24:57.617Z,4.37
2024-01-11T16:27:44.135Z,2.17
2024-01-11T16:30:30.381Z,2.97
2024-01-11T16:33:16.902Z,6.07
2024-01-11T16:36:04.266Z,4.07
2024-01-11T16:38:51.819Z,3.00
2024-01-11T16:41:39.166Z,3.67
2024-01-11T16:44:25.745Z,2.97
2024-01-11T16:47:12.468Z,4.33
2024-01-11T16:49:58.592Z,2.50
2024-01-11T16:52:44.895Z,2.77
2024-01-11T16:55:32.994Z,5.63
2024-01-11T16:58:19.178Z,3.70
2024-01-11T17:01:05.580Z,4.47
2024-01-11T17:03:51.971Z,3.47
2024-01-11T17:06:38.646Z,5.27
2024-01-11T17:09:24.997Z,4.70
2024-01-11T17:12:12.947Z,4.57
2024-01-11T17:15:00.255Z,8.37
2024-01-11T17:17:47.142Z,4.40
2024-01-11T17:20:33.743Z,3.80
2024-01-11T17:23:20.243Z,7.83
2024-01-11T17:26:07.625Z,5.27
2024-01-11T17:28:57.420Z,3.80
2024-01-11T17:31:45.685Z,5.50
2024-01-11T17:34:32.322Z,4.63
2024-01-11T17:37:21.760Z,9.17
2024-01-11T17:40:09.280Z,6.47
2024-01-11T17:42:55.566Z,9.20
2024-01-11T17:45:44.577Z,6.77
2024-01-11T17:48:30.911Z,6.17
2024-01-11T17:51:17.281Z,8.40
2024-01-11T17:54:04.499Z,5.90
2024-01-11T17:56:50.933Z,7.63
2024-01-11T17:59:37.058Z,8.70
2024-01-11T18:02:24.844Z,9.23
2024-01-11T18:05:11.649Z,6.00
2024-01-11T18:07:59.234Z,4.47
2024-01-11T18:10:45.715Z,7.17
2024-01-11T18:13:32.138Z,6.00
2024-01-11T18:16:18.261Z,6.47
2024-01-11T18:19:08.192Z,4.67
2024-01-11T18:21:54.773Z,5.67
2024-01-11T18:24:41.242Z,4.47
2024-01-11T18:27:28.578Z,5.33
2024-01-11T18:30:15.439Z,7.23
2024-01-11T18:33:02.503Z,11.07
2024-01-11T18:35:50.387Z,6.03
2024-01-11T18:38:36.840Z,7.80
2024-01-11T18:41:22.961Z,9.33
2024-01-11T18:44:09.336Z,6.10
2024-01-11T18:46:55.827Z,7.13
2024-01-11T18:49:42.354Z,8.80
2024-01-11T18:52:31.615Z,10.53
2024-01-11T18:55:18.505Z,7.73
2024-01-11T18:58:07.652Z,9.57
2024-01-11T19:00:54.008Z,5.67
2024-01-11T19:03:40.759Z,10.90
2024-01-11T19:06:28.014Z,7.80
2024-01-11T19:09:16.436Z,8.90
2024-01-11T19:12:03.252Z,8.27
2024-01-11T19:14:50.915Z,10.23
2024-01-11T19:17:37.949Z,10.83
2024-01-11T19:20:25.791Z,10.73
2024-01-11T19:23:12.232Z,10.07
2024-01-11T19:26:00.189Z,7.90
2024-01-11T19:28:46.506Z,9.13
2024-01-11T19:31:32.772Z,10.60
2024-01-11T19:34:19.194Z,9.60
2024-01-11T19:37:06.267Z,10.07
2024-01-11T19:39:52.820Z,12.77
2024-01-11T19:42:42.290Z,11.03
2024-01-11T19:45:28.846Z,8.00
2024-01-11T19:48:15.595Z,11.43
2024-01-11T19:51:04.166Z,9.20
2024-01-11T19:53:50.747Z,12.33
2024-01-11T19:56:36.995Z,16.33
2024-01-11T19:59:25.423Z,12.53
2024-01-11T20:02:12.201Z,7.20
2024-01-11T20:04:58.516Z,9.40
2024-01-11T20:07:47.554Z,7.87
2024-01-11T20:10:34.945Z,7.67
2024-01-11T20:13:21.553Z,8.77
2024-01-11T20:16:10.714Z,11.20
2024-01-11T20:18:57.582Z,10.63
2024-01-11T20:21:44.714Z,10.87
2024-01-11T20:24:33.082Z,9.43
2024-01-11T20:27:20.153Z,10.23
2024-01-11T20:30:11.804Z,12.73
2024-01-11T20:33:01.233Z,7.73
2024-01-11T20:35:48.269Z,9.00
2024-01-11T20:38:35.073Z,12.17
2024-01-11T20:41:21.338Z,10.30
2024-01-11T20:44:08.069Z,14.03
2024-01-11T20:46:54.680Z,14.07
2024-01-11T20:49:43.370Z,14.47
2024-01-11T20:52:30.395Z,15.30
2024-01-11T20:55:17.706Z,19.13
2024-01-11T20:58:03.847Z,18.57
2024-01-11T21:00:50.455Z,10.60
2024-01-11T21:03:36.868Z,14.83
2024-01-11T21:06:24.537Z,12.97
2024-01-11T21:09:11.589Z,15.23
2024-01-11T21:11:59.086Z,13.23
2024-01-11T21:14:45.254Z,13.27
2024-01-11T21:17:33.200Z,13.00
2024-01-11T21:20:19.609Z,13.57
2024-01-11T21:23:07.530Z,17.37
2024-01-11T21:25:53.861Z,17.43
2024-01-11T21:28:40.243Z,16.20
2024-01-11T21:31:28.280Z,17.50
2024-01-11T21:34:14.548Z,16.07
2024-01-11T21:37:03.481Z,15.57
2024-01-11T21:39:51.302Z,15.60
2024-01-11T21:42:37.759Z,14.37
2024-01-11T21:45:23.886Z,14.97
2024-01-11T21:48:10.134Z,13.10
2024-01-11T21:50:56.511Z,16.43
2024-01-11T21:53:42.713Z,15.20
2024-01-11T21:56:31.257Z,16.37
2024-01-11T21:59:17.839Z,13.00
2024-01-11T22:02:04.792Z,14.20
2024-01-11T22:04:50.927Z,15.20
2024-01-11T22:07:37.189Z,15.60
2024-01-11T22:10:23.716Z,10.47
2024-01-11T22:13:12.239Z,17.63
2024-01-11T22:15:58.552Z,20.10
2024-01-11T22:18:44.932Z,11.90
2024-01-11T22:21:31.793Z,14.80
2024-01-11T22:24:18.501Z,11.80
2024-01-11T22:27:05.530Z,18.10
2024-01-11T22:29:53.898Z,14.87
2024-01-11T22:32:40.102Z,19.17
2024-01-11T22:35:26.237Z,12.43
2024-01-11T22:38:12.770Z,13.13
2024-01-11T22:40:58.957Z,13.77
2024-01-11T22:43:45.304Z,24.67
2024-01-11T22:46:34.068Z,13.73
2024-01-11T22:49:20.181Z,14.00
2024-01-11T22:52:06.616Z,22.47
2024-01-11T22:54:53.117Z,10.93
2024-01-11T22:57:39.949Z,13.97
2024-01-11T23:00:26.690Z,12.67
2024-01-11T23:03:16.662Z,12.10
2024-01-11T23:06:03.132Z,12.23
2024-01-11T23:08:49.890Z,18.40
2024-01-11T23:11:35.882Z,15.37
2024-01-11T23:14:22.853Z,14.90
2024-01-11T23:17:08.916Z,19.07
2024-01-11T23:19:56.748Z,15.13
2024-01-11T23:22:43.249Z,15.43
2024-01-11T23:25:33.668Z,18.67
2024-01-11T23:28:22.577Z,14.90
2024-01-11T23:31:08.660Z,12.17
2024-01-11T23:33:55.257Z,14.63
2024-01-11T23:36:42.731Z,13.27
2024-01-11T23:39:29.082Z,16.23
2024-01-11T23:42:15.512Z,14.77
2024-01-11T23:45:03.344Z,17.53
2024-01-11T23:47:49.767Z,11.97
2024-01-11T23:50:36.472Z,16.20
2024-01-11T23:53:23.957Z,14.37
2024-01-11T23:56:10.109Z,16.50
2024-01-11T23:58:56.601Z,16.30
